Time,TemperatureF,DewpointF,PressureIn,WindDirection,WindDirectionDegrees,WindSpeedMPH,WindSpeedGustMPH,Humidity,HourlyPrecipIn,Conditions,Clouds,dailyrainin,SolarRadiationWatts/m^2,SoftwareType,DateUTC
2013-01-27 00:04:00,70.9,-99.9,30.05,East,82,0.0,1.0,0,0.00,,,0.00,0,weatherlink.com 1.10,2013-01-27 04:04:00,
2013-01-27 00:19:00,70.6,-99.9,30.05,East,82,0.0,1.0,0,0.00,,,0.00,0,weatherlink.com 1.10,2013-01-27 04:19:00,
2013-01-27 00:35:00,70.4,-99.9,30.05,East,82,0.0,0.0,0,0.00,,,0.00,0,weatherlink.com 1.10,2013-01-27 04:35:00,
2013-01-27 00:50:00,70.3,-99.9,30.05,East,82,1.0,2.0,0,0.00,,,0.00,0,weatherlink.com 1.10,2013-01-27 04:50:00,
2013-01-27 01:05:00,70.2,-99.9,30.05,East,82,0.0,1.0,0,0.00,,,0.00,0,weatherlink.com 1.10,2013-01-27 05:05:00,
2013-01-27 01:20:00,70.0,-99.9,30.05,East,82,0.0,1.0,0,0.00,,,0.00,0,weatherlink.com 1.10,2013-01-27 05:20:00,
2013-01-27 01:35:00,70.0,-99.9,30.05,East,82,0.0,0.0,0,0.00,,,0.00,0,weatherlink.com 1.10,2013-01-27 05:35:00,
2013-01-27 01:50:00,69.6,-99.9,30.04,East,82,1.0,1.0,0,0.00,,,0.00,0,weatherlink.com 1.10,2013-01-27 05:50:00,
2013-01-27 02:05:00,69.4,-99.9,30.04,East,82,1.0,1.0,0,0.00,,,0.00,0,weatherlink.com 1.10,2013-01-27 06:05:00,
2013-01-27 02:20:00,69.7,-99.9,30.04,East,82,0.0,1.0,0,0.00,,,0.00,0,weatherlink.com 1.10,2013-01-27 06:20:00,
2013-01-27 02:35:00,69.7,-99.9,30.04,East,82,0.0,1.0,0,0.00,,,0.00,0,weatherlink.com 1.10,2013-01-27 06:35:00,
2013-01-27 02:50:00,69.6,-99.9,30.03,East,82,0.0,1.0,0,0.00,,,0.00,0,weatherlink.com 1.10,2013-01-27 06:50:00,
2013-01-27 03:05:00,69.6,-99.9,30.03,East,82,0.0,0.0,0,0.00,,,0.00,0,weatherlink.com 1.10,2013-01-27 07:05:00,
2013-01-27 03:21:00,69.5,-99.9,30.02,East,82,0.0,1.0,0,0.00,,,0.00,0,weatherlink.com 1.10,2013-01-27 07:21:00,
2013-01-27 03:35:00,69.4,-99.9,30.02,East,82,0.0,2.0,0,0.00,,,0.00,0,weatherlink.com 1.10,2013-01-27 07:35:00,
2013-01-27 03:50:00,68.8,-99.9,30.02,East,82,2.0,3.0,0,0.00,,,0.00,0,weatherlink.com 1.10,2013-01-27 07:50:00,
2013-01-27 04:05:00,68.7,-99.9,30.02,East,82,0.0,2.0,0,0.00,,,0.00,0,weatherlink.com 1.10,2013-01-27 08:05:00,
2013-01-27 04:20:00,68.6,-99.9,30.02,East,82,1.0,1.0,0,0.00,,,0.00,0,weatherlink.com 1.10,2013-01-27 08:20:00,
2013-01-27 04:36:00,68.7,-99.9,30.02,East,82,0.0,1.0,0,0.00,,,0.00,0,weatherlink.com 1.10,2013-01-27 08:36:00,
2013-01-27 04:51:00,68.6,-99.9,30.02,East,82,0.0,1.0,0,0.00,,,0.00,0,weatherlink.com 1.10,2013-01-27 08:51:00,
2013-01-27 05:06:00,68.5,-99.9,30.02,East,82,0.0,1.0,0,0.00,,,0.00,0,weatherlink.com 1.10,2013-01-27 09:06:00,
2013-01-27 05:21:00,68.4,-99.9,30.03,East,82,1.0,4.0,0,0.00,,,0.00,0,weatherlink.com 1.10,2013-01-27 09:21:00,
2013-01-27 05:36:00,68.2,-99.9,30.04,SSW,211,0.0,3.0,0,0.00,,,0.00,0,weatherlink.com 1.10,2013-01-27 09:36:00,
2013-01-27 05:51:00,67.9,-99.9,30.03,SSW,211,0.0,2.0,0,0.00,,,0.00,0,weatherlink.com 1.10,2013-01-27 09:51:00,
2013-01-27 06:06:00,68.0,-99.9,30.04,SSW,211,0.0,0.0,0,0.00,,,0.00,0,weatherlink.com 1.10,2013-01-27 10:06:00,
2013-01-27 06:21:00,68.2,-99.9,30.04,SSW,211,0.0,2.0,0,0.00,,,0.00,0,weatherlink.com 1.10,2013-01-27 10:21:00,
2013-01-27 06:36:00,68.6,-99.9,30.04,SSW,211,3.0,3.0,0,0.00,,,0.00,0,weatherlink.com 1.10,2013-01-27 10:36:00,
2013-01-27 06:51:00,68.8,-99.9,30.05,SW,219,0.0,1.0,0,0.00,,,0.00,0,weatherlink.com 1.10,2013-01-27 10:51:00,
2013-01-27 07:07:00,68.5,-99.9,30.05,South,171,0.0,3.0,0,0.00,,,0.00,11,weatherlink.com 1.10,2013-01-27 11:07:00,
2013-01-27 07:21:00,68.2,-99.9,30.05,ENE,64,2.0,5.0,0,0.00,,,0.00,33,weatherlink.com 1.10,2013-01-27 11:21:00,
2013-01-27 07:36:00,68.7,-99.9,30.06,ESE,106,0.0,1.0,0,0.00,,,0.00,65,weatherlink.com 1.10,2013-01-27 11:36:00,
2013-01-27 07:52:00,69.2,-99.9,30.07,ESE,106,0.0,0.0,0,0.00,,,0.00,88,weatherlink.com 1.10,2013-01-27 11:52:00,
2013-01-27 08:07:00,69.7,-99.9,30.07,SW,226,0.0,1.0,0,0.00,,,0.00,186,weatherlink.com 1.10,2013-01-27 12:07:00,
2013-01-27 08:22:00,70.1,-99.9,30.08,SW,226,0.0,1.0,0,0.00,,,0.00,239,weatherlink.com 1.10,2013-01-27 12:22:00,
2013-01-27 08:37:00,72.9,-99.9,30.08,SW,226,0.0,1.0,0,0.00,,,0.00,285,weatherlink.com 1.10,2013-01-27 12:37:00,
2013-01-27 08:52:00,73.3,-99.9,30.09,ENE,71,1.0,3.0,0,0.00,,,0.00,338,weatherlink.com 1.10,2013-01-27 12:52:00,
2013-01-27 09:07:00,73.4,-99.9,30.09,ENE,71,0.0,3.0,0,0.00,,,0.00,404,weatherlink.com 1.10,2013-01-27 13:07:00,
2013-01-27 09:22:00,74.5,-99.9,30.10,ENE,71,1.0,3.0,0,0.00,,,0.00,461,weatherlink.com 1.10,2013-01-27 13:22:00,
2013-01-27 09:37:00,75.8,-99.9,30.10,ESE,104,2.0,4.0,0,0.00,,,0.00,501,weatherlink.com 1.10,2013-01-27 13:37:00,
2013-01-27 09:52:00,77.5,-99.9,30.10,East,80,2.0,5.0,0,0.00,,,0.00,554,weatherlink.com 1.10,2013-01-27 13:52:00,
2013-01-27 10:07:00,78.5,-99.9,30.10,NE,55,3.0,8.0,0,0.00,,,0.00,603,weatherlink.com 1.10,2013-01-27 14:07:00,
2013-01-27 10:23:00,79.6,-99.9,30.10,SE,129,0.0,6.0,0,0.00,,,0.00,728,weatherlink.com 1.10,2013-01-27 14:23:00,
2013-01-27 10:37:00,79.8,-99.9,30.10,ESE,118,1.0,8.0,0,0.00,,,0.00,816,weatherlink.com 1.10,2013-01-27 14:37:00,
2013-01-27 10:52:00,80.5,-99.9,30.10,ESE,114,0.0,5.0,0,0.00,,,0.00,229,weatherlink.com 1.10,2013-01-27 14:52:00,
2013-01-27 11:07:00,79.9,-99.9,30.10,ENE,71,2.0,4.0,0,0.00,,,0.00,689,weatherlink.com 1.10,2013-01-27 15:07:00,
2013-01-27 11:23:00,80.6,29.0,30.10,East,96,2.0,6.0,15,0.00,,,0.00,483,weatherlink.com 1.10,2013-01-27 15:23:00,
2013-01-27 11:38:00,81.9,28.0,30.09,ENE,78,0.0,5.0,14,0.00,,,0.00,796,weatherlink.com 1.10,2013-01-27 15:38:00,
2013-01-27 11:53:00,83.0,48.0,30.09,East,91,0.0,6.0,29,0.00,,,0.00,986,weatherlink.com 1.10,2013-01-27 15:53:00,
2013-01-27 12:08:00,82.3,44.0,30.08,East,94,1.0,7.0,26,0.00,,,0.00,1005,weatherlink.com 1.10,2013-01-27 16:08:00,
2013-01-27 12:23:00,81.0,22.0,30.08,SSE,149,1.0,8.0,11,0.00,,,0.00,469,weatherlink.com 1.10,2013-01-27 16:23:00,
2013-01-27 12:38:00,80.8,-99.9,30.07,SE,124,0.0,7.0,0,0.00,,,0.00,1062,weatherlink.com 1.10,2013-01-27 16:38:00,
2013-01-27 12:53:00,82.0,-28.0,30.07,SE,144,2.0,7.0,1,0.00,,,0.00,872,weatherlink.com 1.10,2013-01-27 16:53:00,
2013-01-27 13:08:00,82.6,39.0,30.06,ENE,61,0.0,5.0,21,0.00,,,0.00,953,weatherlink.com 1.10,2013-01-27 17:08:00,
2013-01-27 13:23:00,82.0,48.0,30.05,ESE,103,2.0,7.0,30,0.00,,,0.00,979,weatherlink.com 1.10,2013-01-27 17:23:00,
2013-01-27 13:38:00,81.6,39.0,30.05,East,89,2.0,8.0,22,0.00,,,0.00,933,weatherlink.com 1.10,2013-01-27 17:38:00,
2013-01-27 13:53:00,83.4,55.0,30.04,ENE,67,1.0,7.0,38,0.00,,,0.00,169,weatherlink.com 1.10,2013-01-27 17:53:00,
2013-01-27 14:09:00,82.9,43.0,30.04,SE,144,2.0,7.0,24,0.00,,,0.00,814,weatherlink.com 1.10,2013-01-27 18:09:00,
2013-01-27 14:24:00,82.6,42.0,30.03,East,93,0.0,5.0,24,0.00,,,0.00,882,weatherlink.com 1.10,2013-01-27 18:24:00,
2013-01-27 14:38:00,82.5,54.0,30.03,SSE,147,0.0,8.0,38,0.00,,,0.00,851,weatherlink.com 1.10,2013-01-27 18:38:00,
2013-01-27 14:54:00,83.2,60.0,30.03,SE,133,2.0,11.0,45,0.00,,,0.00,826,weatherlink.com 1.10,2013-01-27 18:54:00,
2013-01-27 15:09:00,83.0,59.0,30.02,ENE,74,3.0,6.0,44,0.00,,,0.00,726,weatherlink.com 1.10,2013-01-27 19:09:00,
2013-01-27 15:24:00,83.6,58.0,30.02,ENE,77,1.0,5.0,42,0.00,,,0.00,684,weatherlink.com 1.10,2013-01-27 19:24:00,
2013-01-27 15:39:00,83.0,56.0,30.02,ENE,58,4.0,8.0,39,0.00,,,0.00,652,weatherlink.com 1.10,2013-01-27 19:39:00,
2013-01-27 15:54:00,81.2,22.0,30.02,NNE,25,2.0,7.0,11,0.00,,,0.00,127,weatherlink.com 1.10,2013-01-27 19:54:00,
2013-01-27 16:09:00,78.9,-99.9,30.02,ENE,77,0.0,7.0,0,0.00,,,0.00,162,weatherlink.com 1.10,2013-01-27 20:09:00,
2013-01-27 16:24:00,79.7,-99.9,30.03,East,96,1.0,6.0,0,0.00,,,0.00,330,weatherlink.com 1.10,2013-01-27 20:24:00,
2013-01-27 16:39:00,78.2,-99.9,30.03,NNE,24,4.0,5.0,0,0.00,,,0.00,88,weatherlink.com 1.10,2013-01-27 20:39:00,
2013-01-27 16:54:00,75.8,-99.9,30.04,NNE,15,5.0,12.0,0,0.00,,,0.00,37,weatherlink.com 1.10,2013-01-27 20:54:00,
2013-01-27 17:10:00,73.7,-99.9,30.05,East,96,1.0,6.0,0,0.00,,,0.00,26,weatherlink.com 1.10,2013-01-27 21:10:00,
2013-01-27 17:24:00,73.5,-99.9,30.05,East,80,0.0,3.0,0,0.00,,,0.00,44,weatherlink.com 1.10,2013-01-27 21:24:00,
2013-01-27 17:39:00,73.4,-99.9,30.05,East,80,0.0,3.0,0,0.00,,,0.00,16,weatherlink.com 1.10,2013-01-27 21:39:00,
2013-01-27 17:55:00,73.2,-99.9,30.06,East,80,0.0,4.0,0,0.00,,,0.00,12,weatherlink.com 1.10,2013-01-27 21:55:00,
2013-01-27 18:10:00,72.9,-99.9,30.06,East,80,0.0,3.0,0,0.00,,,0.00,7,weatherlink.com 1.10,2013-01-27 22:10:00,
2013-01-27 18:25:00,72.6,-99.9,30.06,East,80,0.0,1.0,0,0.00,,,0.00,0,weatherlink.com 1.10,2013-01-27 22:25:00,
2013-01-27 18:40:00,72.4,-99.9,30.07,East,80,0.0,1.0,0,0.00,,,0.00,0,weatherlink.com 1.10,2013-01-27 22:40:00,
2013-01-27 18:55:00,72.6,-99.9,30.07,East,80,0.0,0.0,0,0.00,,,0.00,0,weatherlink.com 1.10,2013-01-27 22:55:00,
2013-01-27 19:10:00,72.6,-99.9,30.08,East,80,0.0,1.0,0,0.00,,,0.00,0,weatherlink.com 1.10,2013-01-27 23:10:00,
2013-01-27 19:25:00,72.5,-99.9,30.08,East,80,0.0,1.0,0,0.00,,,0.00,0,weatherlink.com 1.10,2013-01-27 23:25:00,
2013-01-27 19:40:00,72.1,-99.9,30.09,East,80,2.0,2.0,0,0.00,,,0.00,0,weatherlink.com 1.10,2013-01-27 23:40:00,
2013-01-27 19:55:00,71.8,-99.9,30.09,East,80,3.0,3.0,0,0.00,,,0.00,0,weatherlink.com 1.10,2013-01-27 23:55:00,
2013-01-27 20:10:00,71.8,-99.9,30.10,East,80,0.0,4.0,0,0.00,,,0.00,0,weatherlink.com 1.10,2013-01-28 00:10:00,
2013-01-27 20:25:00,71.7,-99.9,30.10,East,80,1.0,3.0,0,0.00,,,0.00,0,weatherlink.com 1.10,2013-01-28 00:25:00,
2013-01-27 20:40:00,71.5,-99.9,30.10,East,80,1.0,3.0,0,0.00,,,0.00,0,weatherlink.com 1.10,2013-01-28 00:40:00,
2013-01-27 20:55:00,71.3,-99.9,30.11,East,80,0.0,2.0,0,0.00,,,0.00,0,weatherlink.com 1.10,2013-01-28 00:55:00,
2013-01-27 21:10:00,71.2,-99.9,30.11,East,80,1.0,3.0,0,0.00,,,0.00,0,weatherlink.com 1.10,2013-01-28 01:10:00,
2013-01-27 21:25:00,71.0,-99.9,30.11,SW,219,0.0,4.0,0,0.00,,,0.00,0,weatherlink.com 1.10,2013-01-28 01:25:00,
2013-01-27 21:41:00,70.9,-99.9,30.11,SW,219,2.0,3.0,0,0.00,,,0.00,0,weatherlink.com 1.10,2013-01-28 01:41:00,
2013-01-27 21:56:00,70.8,-99.9,30.11,SW,222,0.0,4.0,0,0.00,,,0.00,0,weatherlink.com 1.10,2013-01-28 01:56:00,
2013-01-27 22:11:00,70.8,-99.9,30.12,SW,222,2.0,3.0,0,0.00,,,0.00,0,weatherlink.com 1.10,2013-01-28 02:11:00,
2013-01-27 22:26:00,70.8,-99.9,30.11,SW,222,2.0,3.0,0,0.00,,,0.00,0,weatherlink.com 1.10,2013-01-28 02:26:00,
2013-01-27 22:41:00,70.9,-99.9,30.11,SW,222,0.0,2.0,0,0.00,,,0.00,0,weatherlink.com 1.10,2013-01-28 02:41:00,
2013-01-27 22:56:00,70.8,-99.9,30.11,SW,222,2.0,3.0,0,0.00,,,0.00,0,weatherlink.com 1.10,2013-01-28 02:56:00,
2013-01-27 23:11:00,70.8,-99.9,30.11,SW,222,0.0,3.0,0,0.00,,,0.00,0,weatherlink.com 1.10,2013-01-28 03:11:00,
2013-01-27 23:26:00,70.7,-99.9,30.11,SW,222,1.0,3.0,0,0.00,,,0.00,0,weatherlink.com 1.10,2013-01-28 03:26:00,
2013-01-27 23:41:00,70.6,-99.9,30.11,SW,222,0.0,2.0,0,0.00,,,0.00,0,weatherlink.com 1.10,2013-01-28 03:41:00,
2013-01-27 23:56:00,70.6,-99.9,30.10,SW,222,1.0,3.0,0,0.00,,,0.00,0,weatherlink.com 1.10,2013-01-28 03:56:00,